createdAt,value
2017-11-25T00:01:20.443Z,100598.89
2017-11-25T00:03:47.970Z,100601.39
2017-11-25T00:06:15.517Z,100605.02
2017-11-25T00:08:43.075Z,100607.62
2017-11-25T00:11:10.616Z,100607.71
2017-11-25T00:13:38.190Z,100604.30
2017-11-25T00:16:05.723Z,100595.41
2017-11-25T00:18:33.240Z,100587.79
2017-11-25T00:21:00.992Z,100581.36
2017-11-25T00:23:28.511Z,100582.02
2017-11-25T00:25:56.039Z,100585.22
2017-11-25T00:28:23.638Z,100579.17
2017-11-25T00:30:51.153Z,100581.15
2017-11-25T00:33:18.676Z,100584.95
2017-11-25T00:35:46.421Z,100581.97
2017-11-25T00:38:13.947Z,100579.34
2017-11-25T00:40:41.473Z,100578.17
2017-11-25T00:43:09.036Z,100577.95
2017-11-25T00:45:36.722Z,100576.06
2017-11-25T00:48:04.241Z,100577.59
2017-11-25T00:50:31.762Z,100571.59
2017-11-25T00:52:59.355Z,100570.95
2017-11-25T00:55:26.873Z,100567.39
2017-11-25T00:57:54.390Z,100559.80
2017-11-25T01:00:22.144Z,100551.58
2017-11-25T01:02:49.661Z,100552.92
2017-11-25T01:05:17.178Z,100553.79
2017-11-25T01:07:44.760Z,100556.04
2017-11-25T01:10:12.273Z,100560.36
2017-11-25T01:12:39.792Z,100560.19
2017-11-25T01:15:07.372Z,100561.28
2017-11-25T01:17:34.899Z,100557.04
2017-11-25T01:20:02.413Z,100557.73
2017-11-25T01:22:29.965Z,100566.58
2017-11-25T01:24:57.534Z,100565.11
2017-11-25T01:27:25.068Z,100568.13
2017-11-25T01:29:52.583Z,100568.24
2017-11-25T01:32:20.158Z,100557.78
2017-11-25T01:34:47.717Z,100550.69
2017-11-25T01:37:15.251Z,100555.02
2017-11-25T01:39:42.821Z,100548.06
2017-11-25T01:42:10.339Z,100553.14
2017-11-25T01:44:37.873Z,100551.83
2017-11-25T01:47:05.635Z,100549.47
2017-11-25T01:49:33.171Z,100548.42
2017-11-25T01:52:00.688Z,100543.47
2017-11-25T01:54:28.254Z,100543.64
2017-11-25T01:56:55.790Z,100545.58
2017-11-25T01:59:23.345Z,100540.38
2017-11-25T02:01:50.907Z,100541.08
2017-11-25T02:04:18.840Z,100537.72
2017-11-25T02:06:46.381Z,100531.49
2017-11-25T02:09:13.930Z,100536.88
2017-11-25T02:11:41.675Z,100528.55
2017-11-25T02:14:09.220Z,100524.48
2017-11-25T02:16:36.761Z,100520.81
2017-11-25T02:19:04.344Z,100525.23
2017-11-25T02:21:31.881Z,100524.34
2017-11-25T02:23:59.634Z,100524.78
2017-11-25T02:26:27.169Z,100526.36
2017-11-25T02:28:54.694Z,100526.05
2017-11-25T02:31:22.466Z,100527.64
2017-11-25T02:33:49.989Z,100517.73
2017-11-25T02:36:17.558Z,100516.19
2017-11-25T02:38:45.273Z,100514.09
2017-11-25T02:41:12.814Z,100506.98
2017-11-25T02:43:40.363Z,100497.97
2017-11-25T02:46:07.960Z,100494.66
2017-11-25T02:48:35.498Z,100486.61
2017-11-25T02:51:03.046Z,100483.52
2017-11-25T02:53:30.643Z,100478.03
2017-11-25T02:55:58.190Z,100466.98
2017-11-25T02:58:25.725Z,100462.48
2017-11-25T03:00:58.131Z,100457.92
2017-11-25T03:03:25.661Z,100451.41
2017-11-25T03:05:53.220Z,100453.25
2017-11-25T03:08:20.813Z,100453.42
2017-11-25T03:10:48.365Z,100456.34
2017-11-25T03:13:15.927Z,100457.36
2017-11-25T03:15:43.483Z,100452.09
2017-11-25T03:18:11.014Z,100459.62
2017-11-25T03:20:38.725Z,100456.28
2017-11-25T03:23:06.245Z,100458.95
2017-11-25T03:25:33.781Z,100461.99
2017-11-25T03:28:01.335Z,100462.73
2017-11-25T03:30:28.867Z,100469.52
2017-11-25T03:32:56.595Z,100470.30
2017-11-25T03:35:24.135Z,100464.44
2017-11-25T03:37:51.672Z,100463.78
2017-11-25T03:40:19.254Z,100467.11
2017-11-25T03:42:46.792Z,100463.08
2017-11-25T03:45:14.304Z,100458.53
2017-11-25T03:47:41.869Z,100457.36
2017-11-25T03:50:09.385Z,100451.58
2017-11-25T03:52:36.907Z,100446.28
2017-11-25T03:55:04.469Z,100450.94
2017-11-25T03:57:31.995Z,100449.17
2017-11-25T03:59:59.583Z,100445.63
2017-11-25T04:02:27.114Z,100437.78
2017-11-25T04:04:54.629Z,100442.03
2017-11-25T04:07:22.411Z,100445.52
2017-11-25T04:09:49.938Z,100446.02
2017-11-25T04:12:17.462Z,100447.72
2017-11-25T04:14:45.054Z,100440.94
2017-11-25T04:17:12.779Z,100439.30
2017-11-25T04:19:40.320Z,100433.67
2017-11-25T04:22:07.886Z,100434.91
2017-11-25T04:24:35.440Z,100436.75
2017-11-25T04:27:03.199Z,100430.50
2017-11-25T04:29:30.751Z,100428.95
2017-11-25T04:31:58.270Z,100420.12
2017-11-25T04:34:25.997Z,100415.79
2017-11-25T04:36:53.528Z,100411.27
2017-11-25T04:39:21.081Z,100411.52
2017-11-25T04:41:48.640Z,100409.48
2017-11-25T04:44:16.161Z,100412.70
2017-11-25T04:46:43.725Z,100409.63
2017-11-25T04:49:11.260Z,100401.19
2017-11-25T04:51:38.823Z,100399.96
2017-11-25T04:54:06.379Z,100400.71
2017-11-25T04:56:33.924Z,100400.41
2017-11-25T04:59:01.493Z,100396.22
2017-11-25T05:01:29.213Z,100397.98
2017-11-25T05:03:56.786Z,100379.21
2017-11-25T05:06:24.322Z,100386.62
2017-11-25T05:08:51.897Z,100385.80
2017-11-25T05:11:19.434Z,100384.83
2017-11-25T05:13:46.969Z,100386.05
2017-11-25T05:16:14.525Z,100381.25
2017-11-25T05:18:42.055Z,100386.80
2017-11-25T05:21:09.645Z,100385.09
2017-11-25T05:23:37.213Z,100379.73
2017-11-25T05:26:04.758Z,100381.50
2017-11-25T05:28:32.470Z,100375.52
2017-11-25T05:31:00.009Z,100375.89
2017-11-25T05:33:27.542Z,100384.22
2017-11-25T05:35:55.126Z,100375.94
2017-11-25T05:38:22.661Z,100381.48
2017-11-25T05:40:50.201Z,100379.52
2017-11-25T05:43:17.777Z,100382.45
2017-11-25T05:45:45.310Z,100390.83
2017-11-25T05:48:12.834Z,100395.45
2017-11-25T05:50:40.570Z,100396.96
2017-11-25T05:53:08.110Z,100394.83
2017-11-25T05:55:35.650Z,100396.91
2017-11-25T05:58:03.202Z,100393.63
2017-11-25T06:00:30.729Z,100405.75
2017-11-25T06:02:58.331Z,100411.43
2017-11-25T06:05:25.853Z,100417.44
2017-11-25T06:07:53.390Z,100417.69
2017-11-25T06:10:20.937Z,100415.16
2017-11-25T06:12:48.454Z,100413.06
2017-11-25T06:15:16.193Z,100410.05
2017-11-25T06:17:43.723Z,100418.74
2017-11-25T06:20:11.259Z,100426.28
2017-11-25T06:22:38.839Z,100429.64
2017-11-25T06:25:06.363Z,100420.84
2017-11-25T06:27:33.917Z,100428.94
2017-11-25T06:30:01.490Z,100424.63
2017-11-25T06:32:29.030Z,100422.86
2017-11-25T06:34:56.578Z,100426.81
2017-11-25T06:37:24.253Z,100421.55
2017-11-25T06:39:51.798Z,100423.93
2017-11-25T06:42:19.347Z,100419.27
2017-11-25T06:44:46.943Z,100424.23
2017-11-25T06:47:14.647Z,100413.02
2017-11-25T06:49:42.178Z,100428.26
2017-11-25T06:52:09.734Z,100422.45
2017-11-25T06:54:37.259Z,100427.44
2017-11-25T06:57:04.820Z,100428.38
2017-11-25T06:59:32.347Z,100433.03
2017-11-25T07:01:59.911Z,100434.41
2017-11-25T07:04:27.442Z,100429.19
2017-11-25T07:06:55.025Z,100434.84
2017-11-25T07:09:22.566Z,100436.30
2017-11-25T07:11:50.148Z,100439.40
2017-11-25T07:14:17.827Z,100439.89
2017-11-25T07:16:45.382Z,100446.39
2017-11-25T07:19:12.926Z,100450.84
2017-11-25T07:21:40.666Z,100450.12
2017-11-25T07:24:08.218Z,100448.53
2017-11-25T07:26:35.753Z,100449.61
2017-11-25T07:29:03.417Z,100449.45
2017-11-25T07:31:30.949Z,100448.17
2017-11-25T07:33:58.484Z,100453.05
2017-11-25T07:36:26.608Z,100455.91
2017-11-25T07:38:54.146Z,100458.25
2017-11-25T07:41:21.690Z,100463.79
2017-11-25T07:43:49.273Z,100457.91
2017-11-25T07:46:16.812Z,100457.63
2017-11-25T07:48:44.366Z,100458.84
2017-11-25T07:51:11.953Z,100460.77
2017-11-25T07:53:41.663Z,100463.71
2017-11-25T07:56:09.194Z,100461.53
2017-11-25T07:58:36.745Z,100464.70
2017-11-25T08:01:04.286Z,100465.89
2017-11-25T08:03:31.851Z,100461.44
2017-11-25T08:05:59.391Z,100467.16
2017-11-25T08:08:26.961Z,100468.17
2017-11-25T08:10:54.489Z,100467.14
2017-11-25T08:13:22.046Z,100466.12
2017-11-25T08:15:49.621Z,100479.00
2017-11-25T08:18:17.154Z,100482.53
2017-11-25T08:20:44.686Z,100488.93
2017-11-25T08:23:12.285Z,100496.28
2017-11-25T08:25:39.834Z,100498.73
2017-11-25T08:28:07.372Z,100496.07
2017-11-25T08:30:34.932Z,100500.22
2017-11-25T08:33:02.479Z,100504.27
2017-11-25T08:35:30.064Z,100505.61
2017-11-25T08:37:57.590Z,100510.95
2017-11-25T08:40:25.119Z,100509.54
2017-11-25T08:42:53.367Z,100509.86
2017-11-25T08:45:20.906Z,100513.42
2017-11-25T08:47:48.442Z,100512.25
2017-11-25T08:50:15.990Z,100518.33
2017-11-25T08:52:43.528Z,100513.42
2017-11-25T08:55:11.079Z,100518.25
2017-11-25T08:57:38.611Z,100517.69
2017-11-25T09:00:06.166Z,100520.02
2017-11-25T09:02:33.701Z,100520.80
2017-11-25T09:05:01.389Z,100529.23
2017-11-25T09:07:28.922Z,100527.86
2017-11-25T09:09:56.447Z,100537.09
2017-11-25T09:12:24.210Z,100538.22
2017-11-25T09:14:51.768Z,100534.25
2017-11-25T09:17:19.303Z,100549.92
2017-11-25T09:19:46.870Z,100546.92
2017-11-25T09:22:14.420Z,100556.02
2017-11-25T09:24:41.969Z,100551.14
2017-11-25T09:27:09.509Z,100547.07
2017-11-25T09:29:37.080Z,100551.70
2017-11-25T09:32:04.618Z,100549.61
2017-11-25T09:34:32.134Z,100554.80
2017-11-25T09:36:59.819Z,100553.04
2017-11-25T09:39:27.343Z,100556.44
2017-11-25T09:41:54.869Z,100549.27
2017-11-25T09:44:22.419Z,100549.65
2017-11-25T09:46:49.967Z,100549.65
2017-11-25T09:49:17.626Z,100549.88
2017-11-25T09:51:45.172Z,100544.61
2017-11-25T09:54:12.698Z,100549.67
2017-11-25T09:56:40.285Z,100547.56
2017-11-25T09:59:07.823Z,100548.61
2017-11-25T10:01:35.337Z,100542.44
2017-11-25T10:04:02.891Z,100543.48
2017-11-25T10:06:30.475Z,100534.20
2017-11-25T10:08:57.999Z,100534.80
2017-11-25T10:11:25.536Z,100539.84
2017-11-25T10:13:53.225Z,100544.07
2017-11-25T10:16:20.738Z,100541.66
2017-11-25T10:18:48.260Z,100540.90
2017-11-25T10:21:15.823Z,100542.45
2017-11-25T10:23:43.407Z,100539.01
2017-11-25T10:26:10.979Z,100542.23
2017-11-25T10:28:38.502Z,100541.36
2017-11-25T10:31:06.018Z,100536.22
2017-11-25T10:33:33.565Z,100542.69
2017-11-25T10:36:01.138Z,100544.61
2017-11-25T10:38:28.661Z,100547.41
2017-11-25T10:40:56.223Z,100535.86
2017-11-25T10:43:23.772Z,100533.42
2017-11-25T10:45:51.310Z,100537.12
2017-11-25T10:48:18.866Z,100540.20
2017-11-25T10:50:46.440Z,100542.83
2017-11-25T10:53:14.009Z,100534.85
2017-11-25T10:55:41.578Z,100529.78
2017-11-25T10:58:09.110Z,100536.74
2017-11-25T11:00:36.789Z,100540.41
2017-11-25T11:03:04.300Z,100536.05
2017-11-25T11:05:31.821Z,100527.42
2017-11-25T11:07:59.362Z,100529.22
2017-11-25T11:10:26.891Z,100531.97
2017-11-25T11:12:54.478Z,100531.27
2017-11-25T11:15:22.018Z,100526.80
2017-11-25T11:17:49.542Z,100525.63
2017-11-25T11:20:17.087Z,100525.52
2017-11-25T11:22:44.679Z,100529.42
2017-11-25T11:25:12.219Z,100530.44
2017-11-25T11:27:39.738Z,100534.19
2017-11-25T11:30:07.473Z,100533.88
2017-11-25T11:32:34.999Z,100532.08
2017-11-25T11:35:02.521Z,100525.19
2017-11-25T11:37:30.080Z,100515.56
2017-11-25T11:39:57.602Z,100517.54
2017-11-25T11:42:25.341Z,100512.25
2017-11-25T11:44:52.866Z,100517.34
2017-11-25T11:47:20.399Z,100522.66
2017-11-25T11:49:47.937Z,100519.44
2017-11-25T11:52:16.559Z,100513.61
2017-11-25T11:54:44.109Z,100518.20
2017-11-25T11:57:11.660Z,100516.79
2017-11-25T11:59:39.229Z,100516.67
2017-11-25T12:02:06.757Z,100520.28
2017-11-25T12:04:34.286Z,100523.23
2017-11-25T12:07:01.980Z,100521.83
2017-11-25T12:09:29.492Z,100523.07
2017-11-25T12:11:57.019Z,100525.77
2017-11-25T12:14:24.557Z,100534.06
2017-11-25T12:16:52.160Z,100535.06
2017-11-25T12:19:19.697Z,100536.80
2017-11-25T12:21:47.214Z,100527.97
2017-11-25T12:24:14.801Z,100532.82
2017-11-25T12:26:42.332Z,100541.53
2017-11-25T12:29:09.841Z,100546.66
2017-11-25T12:31:37.378Z,100539.17
2017-11-25T12:34:05.095Z,100543.48
2017-11-25T12:36:32.605Z,100542.15
2017-11-25T12:39:00.146Z,100546.22
2017-11-25T12:41:27.814Z,100546.72
2017-11-25T12:43:55.363Z,100551.29
2017-11-25T12:46:22.916Z,100549.54
2017-11-25T12:48:50.581Z,100548.67
2017-11-25T12:51:18.127Z,100548.78
2017-11-25T12:53:46.693Z,100544.86
2017-11-25T12:56:14.298Z,100551.70
2017-11-25T12:58:41.827Z,100554.57
2017-11-25T13:01:09.353Z,100555.08
2017-11-25T13:03:36.906Z,100556.95
2017-11-25T13:06:04.417Z,100564.00
2017-11-25T13:08:32.133Z,100560.64
2017-11-25T13:10:59.654Z,100570.81
2017-11-25T13:13:27.173Z,100576.17
2017-11-25T13:15:54.733Z,100576.78
2017-11-25T13:18:22.245Z,100576.36
2017-11-25T13:20:49.757Z,100573.13
2017-11-25T13:23:17.329Z,100577.64
2017-11-25T13:25:44.841Z,100584.43
2017-11-25T13:28:12.368Z,100582.92
2017-11-25T13:30:39.913Z,100580.46
2017-11-25T13:33:07.440Z,100579.21
2017-11-25T13:35:35.107Z,100575.16
2017-11-25T13:38:02.642Z,100581.49
2017-11-25T13:40:30.166Z,100581.86
2017-11-25T13:42:57.725Z,100589.05
2017-11-25T13:45:25.285Z,100593.20
2017-11-25T13:47:52.814Z,100588.02
2017-11-25T13:50:20.348Z,100589.47
2017-11-25T13:52:47.927Z,100599.69
2017-11-25T13:55:15.442Z,100607.78
2017-11-25T13:57:43.002Z,100622.25
2017-11-25T14:00:10.543Z,100645.81
2017-11-25T14:02:38.086Z,100636.66
2017-11-25T14:05:05.653Z,100634.58
2017-11-25T14:07:33.190Z,100633.75
2017-11-25T14:10:00.754Z,100621.64
2017-11-25T14:12:28.330Z,100612.63
2017-11-25T14:14:55.875Z,100599.25
2017-11-25T14:17:23.395Z,100598.00
2017-11-25T14:19:50.938Z,100592.50
2017-11-25T14:22:18.498Z,100597.72
2017-11-25T14:24:46.026Z,100604.80
2017-11-25T14:27:13.562Z,100616.47
2017-11-25T14:29:41.227Z,100605.20
2017-11-25T14:32:08.733Z,100609.33
2017-11-25T14:34:36.248Z,100615.15
2017-11-25T14:37:03.822Z,100609.70
2017-11-25T14:39:31.330Z,100615.47
2017-11-25T14:41:58.849Z,100618.80
2017-11-25T14:44:26.413Z,100625.77
2017-11-25T14:46:53.929Z,100626.16
2017-11-25T14:49:21.454Z,100628.23
2017-11-25T14:51:48.986Z,100628.95
2017-11-25T14:54:16.642Z,100632.19
2017-11-25T14:56:44.153Z,100629.81
2017-11-25T14:59:11.661Z,100622.82
2017-11-25T15:01:39.254Z,100627.07
2017-11-25T15:04:06.773Z,100635.90
2017-11-25T15:06:34.295Z,100638.38
2017-11-25T15:09:01.835Z,100637.91
2017-11-25T15:11:29.398Z,100636.18
2017-11-25T15:13:56.923Z,100636.89
2017-11-25T15:16:24.441Z,100646.87
2017-11-25T15:18:52.205Z,100641.36
2017-11-25T15:21:19.749Z,100645.62
2017-11-25T15:23:47.266Z,100654.83
2017-11-25T15:26:14.811Z,100654.37
2017-11-25T15:28:42.395Z,100655.19
2017-11-25T15:31:09.933Z,100657.75
2017-11-25T15:33:37.678Z,100652.33
2017-11-25T15:36:05.235Z,100652.73
2017-11-25T15:38:32.781Z,100650.72
2017-11-25T15:41:00.539Z,100658.39
2017-11-25T15:43:28.069Z,100659.70
2017-11-25T15:45:55.577Z,100656.16
2017-11-25T15:48:23.134Z,100659.87
2017-11-25T15:50:50.692Z,100663.68
2017-11-25T15:53:18.278Z,100663.76
2017-11-25T15:55:45.809Z,100672.73
2017-11-25T15:58:13.334Z,100676.11
2017-11-25T16:00:40.940Z,100675.33
2017-11-25T16:03:08.461Z,100676.86
2017-11-25T16:05:35.976Z,100685.95
2017-11-25T16:08:03.539Z,100687.39
2017-11-25T16:10:31.080Z,100686.87
2017-11-25T16:12:58.589Z,100690.30
2017-11-25T16:15:26.155Z,100687.58
2017-11-25T16:17:53.666Z,100693.27
2017-11-25T16:20:21.203Z,100695.94
2017-11-25T16:22:48.870Z,100699.72
2017-11-25T16:25:16.393Z,100702.97
2017-11-25T16:27:43.919Z,100708.15
2017-11-25T16:30:11.513Z,100706.52
2017-11-25T16:32:39.046Z,100709.44
2017-11-25T16:35:06.568Z,100704.90
2017-11-25T16:37:34.166Z,100706.52
2017-11-25T16:40:01.690Z,100707.64
2017-11-25T16:42:29.205Z,100706.88
2017-11-25T16:44:56.922Z,100708.85
2017-11-25T16:47:24.438Z,100710.95
2017-11-25T16:49:51.971Z,100706.28
2017-11-25T16:52:19.550Z,100711.86
2017-11-25T16:54:47.064Z,100713.34
2017-11-25T16:57:14.599Z,100714.38
2017-11-25T16:59:42.148Z,100714.14
2017-11-25T17:02:09.688Z,100714.60
2017-11-25T17:04:37.216Z,100716.13
2017-11-25T17:07:04.757Z,100720.00
2017-11-25T17:09:32.278Z,100718.17
2017-11-25T17:11:59.866Z,100724.53
2017-11-25T17:14:27.396Z,100741.39
2017-11-25T17:16:54.911Z,100735.34
2017-11-25T17:19:22.479Z,100741.07
2017-11-25T17:21:49.993Z,100748.41
2017-11-25T17:24:17.507Z,100751.94
2017-11-25T17:26:45.047Z,100751.42
2017-11-25T17:29:12.622Z,100755.36
2017-11-25T17:31:40.143Z,100755.10
2017-11-25T17:34:07.674Z,100762.20
2017-11-25T17:36:35.214Z,100759.12
2017-11-25T17:39:02.730Z,100761.18
2017-11-25T17:41:30.302Z,100767.94
2017-11-25T17:43:57.825Z,100757.20
2017-11-25T17:46:25.393Z,100755.91
2017-11-25T17:48:52.916Z,100755.91
2017-11-25T17:51:20.420Z,100760.92
2017-11-25T17:53:47.957Z,100757.55
2017-11-25T17:56:15.470Z,100772.44
2017-11-25T17:58:43.027Z,100774.59
2017-11-25T18:01:10.551Z,100774.72
2017-11-25T18:03:38.101Z,100778.88
2017-11-25T18:06:05.618Z,100776.66
2017-11-25T18:08:33.206Z,100779.29
2017-11-25T18:11:00.725Z,100779.40
2017-11-25T18:13:28.278Z,100784.00
2017-11-25T18:15:55.862Z,100780.40
2017-11-25T18:18:23.391Z,100789.27
2017-11-25T18:20:50.920Z,100791.61
2017-11-25T18:23:18.466Z,100793.42
2017-11-25T18:25:46.197Z,100789.97
2017-11-25T18:28:13.726Z,100786.20
2017-11-25T18:30:41.251Z,100789.69
2017-11-25T18:33:08.792Z,100795.72
2017-11-25T18:35:36.316Z,100795.36
2017-11-25T18:38:03.882Z,100794.86
2017-11-25T18:40:31.421Z,100792.29
2017-11-25T18:42:59.090Z,100794.44
2017-11-25T18:45:26.626Z,100788.84
2017-11-25T18:47:54.158Z,100790.86
2017-11-25T18:50:21.689Z,100800.64
2017-11-25T18:52:49.244Z,100805.88
2017-11-25T18:55:16.754Z,100800.37
2017-11-25T18:57:44.283Z,100808.04
2017-11-25T19:00:11.863Z,100817.71
2017-11-25T19:02:39.425Z,100809.86
2017-11-25T19:05:06.952Z,100816.17
2017-11-25T19:07:34.475Z,100816.84
2017-11-25T19:10:02.018Z,100822.70
2017-11-25T19:12:29.673Z,100823.15
2017-11-25T19:14:57.180Z,100828.80
2017-11-25T19:17:24.693Z,100830.18
2017-11-25T19:19:52.234Z,100833.56
2017-11-25T19:22:19.758Z,100831.06
2017-11-25T19:24:47.302Z,100834.55
2017-11-25T19:27:14.821Z,100839.89
2017-11-25T19:29:42.561Z,100838.62
2017-11-25T19:32:10.079Z,100844.01
2017-11-25T19:34:37.593Z,100847.30
2017-11-25T19:37:05.146Z,100848.53
2017-11-25T19:39:32.789Z,100850.55
2017-11-25T19:42:00.307Z,100852.08
2017-11-25T19:44:27.850Z,100855.88
2017-11-25T19:46:55.548Z,100860.03
2017-11-25T19:49:23.079Z,100866.45
2017-11-25T19:51:50.597Z,100868.11
2017-11-25T19:54:18.294Z,100875.28
2017-11-25T19:56:45.842Z,100879.65
2017-11-25T19:59:13.372Z,100876.20
2017-11-25T20:01:40.909Z,100881.32
2017-11-25T20:04:08.424Z,100880.00
2017-11-25T20:06:36.007Z,100884.78
2017-11-25T20:09:03.559Z,100876.81
2017-11-25T20:11:31.082Z,100875.46
2017-11-25T20:13:58.664Z,100879.59
2017-11-25T20:16:26.186Z,100866.11
2017-11-25T20:18:53.705Z,100872.43
2017-11-25T20:21:21.280Z,100874.53
2017-11-25T20:23:48.803Z,100872.71
2017-11-25T20:26:16.331Z,100882.47
2017-11-25T20:28:44.013Z,100886.58
2017-11-25T20:31:11.534Z,100882.58
2017-11-25T20:33:39.055Z,100885.67
2017-11-25T20:36:06.601Z,100892.99
2017-11-25T20:38:34.146Z,100891.64
2017-11-25T20:41:01.702Z,100898.94
2017-11-25T20:43:29.233Z,100901.39
2017-11-25T20:45:56.785Z,100898.26
2017-11-25T20:48:24.297Z,100901.48
2017-11-25T20:50:51.827Z,100899.61
2017-11-25T20:53:19.415Z,100897.67
2017-11-25T20:55:46.937Z,100900.04
2017-11-25T20:58:14.440Z,100908.75
2017-11-25T21:00:42.163Z,100916.60
2017-11-25T21:03:09.682Z,100906.08
2017-11-25T21:05:37.198Z,100911.69
2017-11-25T21:08:04.759Z,100919.43
2017-11-25T21:10:32.283Z,100921.77
2017-11-25T21:12:59.803Z,100913.94
2017-11-25T21:15:27.373Z,100914.85
2017-11-25T21:17:54.896Z,100909.89
2017-11-25T21:20:22.427Z,100915.50
2017-11-25T21:22:50.232Z,100921.59
2017-11-25T21:25:17.757Z,100910.65
2017-11-25T21:27:45.282Z,100917.63
2017-11-25T21:30:12.839Z,100919.25
2017-11-25T21:32:40.376Z,100918.59
2017-11-25T21:35:07.910Z,100927.38
2017-11-25T21:37:35.462Z,100930.47
2017-11-25T21:40:02.988Z,100928.84
2017-11-25T21:42:30.542Z,100933.30
2017-11-25T21:44:58.059Z,100925.10
2017-11-25T21:47:25.594Z,100926.62
2017-11-25T21:49:53.178Z,100922.64
2017-11-25T21:52:20.701Z,100928.09
2017-11-25T21:54:48.220Z,100933.62
2017-11-25T21:57:15.937Z,100927.34
2017-11-25T21:59:43.459Z,100930.39
2017-11-25T22:02:10.977Z,100937.18
2017-11-25T22:04:38.545Z,100930.86
2017-11-25T22:07:06.071Z,100936.67
2017-11-25T22:09:33.595Z,100939.27
2017-11-25T22:12:01.142Z,100934.45
2017-11-25T22:14:28.691Z,100937.95
2017-11-25T22:16:56.206Z,100941.71
2017-11-25T22:19:23.745Z,100939.61
2017-11-25T22:21:51.253Z,100936.80
2017-11-25T22:24:18.830Z,100942.49
2017-11-25T22:26:46.380Z,100942.36
2017-11-25T22:29:13.901Z,100946.83
2017-11-25T22:31:41.454Z,100943.94
2017-11-25T22:34:09.014Z,100946.95
2017-11-25T22:36:36.597Z,100946.81
2017-11-25T22:39:04.149Z,100943.61
2017-11-25T22:41:31.666Z,100944.27
2017-11-25T22:43:59.202Z,100940.42
2017-11-25T22:46:26.738Z,100946.05
2017-11-25T22:48:54.262Z,100945.48
2017-11-25T22:51:22.020Z,100935.76
2017-11-25T22:53:49.563Z,100941.33
2017-11-25T22:56:17.077Z,100943.47
2017-11-25T22:58:44.627Z,100948.76
2017-11-25T23:01:12.147Z,100948.63
2017-11-25T23:03:39.707Z,100956.87
2017-11-25T23:06:11.246Z,100958.22
2017-11-25T23:08:38.830Z,100954.77
2017-11-25T23:11:06.376Z,100961.30
2017-11-25T23:13:33.895Z,100949.92
2017-11-25T23:16:01.466Z,100952.88
2017-11-25T23:18:28.991Z,100953.89
2017-11-25T23:20:56.503Z,100961.78
2017-11-25T23:23:24.072Z,100961.45
2017-11-25T23:25:51.585Z,100956.34
2017-11-25T23:28:19.098Z,100960.94
2017-11-25T23:30:46.634Z,100956.32
2017-11-25T23:33:14.150Z,100956.23
2017-11-25T23:35:41.714Z,100953.51
2017-11-25T23:38:09.248Z,100959.72
2017-11-25T23:40:36.790Z,100953.31
2017-11-25T23:43:04.535Z,100961.41
2017-11-25T23:45:32.054Z,100962.39
2017-11-25T23:47:59.570Z,100960.26
2017-11-25T23:50:27.105Z,100961.05
2017-11-25T23:52:54.626Z,100975.43
2017-11-25T23:55:22.164Z,100966.48
2017-11-25T23:57:49.685Z,100974.95
